Terminal Aerodrome Forecast
Issued by NWS

Home | Current Version | Previous Version | Text Only | Print | Product List | Glossary On
Versions: 1 2 3 4 5 6 7 8 9 10 11 12 13 14 15 16
240
FTUS41 KGYX 240520
TAFHIE
TAF
KHIE 240520Z 2406/2506 00000KT P6SM OVC250
     FM241200 12004KT P6SM OVC050
     FM241500 13005KT 4SM -RA OVC025
     FM250100 11005KT 4SM -RA OVC003=

USA.gov is the U.S. government's official web portal to all federal, state and local government web resources and services.